sensor_id;sensor_type;location;lat;lon;timestamp;P1;durP1;ratioP1;P2;durP2;ratioP2
51800;SDS011;37855;53.204;6.568;2023-08-01T00:00:44;17.85;;;4.95;;
51800;SDS011;37855;53.204;6.568;2023-08-01T00:03:10;18.40;;;4.50;;
51800;SDS011;37855;53.204;6.568;2023-08-01T00:05:35;14.57;;;4.15;;
51800;SDS011;37855;53.204;6.568;2023-08-01T00:08:02;15.43;;;4.30;;
51800;SDS011;37855;53.204;6.568;2023-08-01T00:10:28;14.17;;;4.03;;
51800;SDS011;37855;53.204;6.568;2023-08-01T00:12:54;14.57;;;4.43;;
51800;SDS011;37855;53.204;6.568;2023-08-01T00:15:19;11.77;;;4.87;;
51800;SDS011;37855;53.204;6.568;2023-08-01T00:17:45;14.55;;;4.63;;
51800;SDS011;37855;53.204;6.568;2023-08-01T00:20:11;12.80;;;4.27;;
51800;SDS011;37855;53.204;6.568;2023-08-01T00:22:37;11.32;;;4.18;;
51800;SDS011;37855;53.204;6.568;2023-08-01T00:25:02;14.10;;;4.20;;
51800;SDS011;37855;53.204;6.568;2023-08-01T00:27:28;19.88;;;4.75;;
51800;SDS011;37855;53.204;6.568;2023-08-01T00:29:54;12.60;;;4.30;;
51800;SDS011;37855;53.204;6.568;2023-08-01T00:32:20;14.27;;;4.93;;
51800;SDS011;37855;53.204;6.568;2023-08-01T00:34:46;14.85;;;4.05;;
51800;SDS011;37855;53.204;6.568;2023-08-01T00:37:14;11.63;;;4.20;;
51800;SDS011;37855;53.204;6.568;2023-08-01T00:39:40;11.17;;;4.13;;
51800;SDS011;37855;53.204;6.568;2023-08-01T00:42:06;10.93;;;4.07;;
51800;SDS011;37855;53.204;6.568;2023-08-01T00:44:31;10.87;;;4.00;;
51800;SDS011;37855;53.204;6.568;2023-08-01T00:46:57;13.93;;;4.45;;
51800;SDS011;37855;53.204;6.568;2023-08-01T00:49:23;12.17;;;4.30;;
51800;SDS011;37855;53.204;6.568;2023-08-01T00:51:49;11.93;;;3.97;;
51800;SDS011;37855;53.204;6.568;2023-08-01T00:54:15;9.85;;;4.13;;
51800;SDS011;37855;53.204;6.568;2023-08-01T00:56:41;12.27;;;3.90;;
51800;SDS011;37855;53.204;6.568;2023-08-01T00:59:08;9.02;;;3.40;;
51800;SDS011;37855;53.204;6.568;2023-08-01T01:01:33;13.18;;;4.78;;
51800;SDS011;37855;53.204;6.568;2023-08-01T01:03:59;11.77;;;3.73;;
51800;SDS011;37855;53.204;6.568;2023-08-01T01:08:59;11.98;;;4.35;;
51800;SDS011;37855;53.204;6.568;2023-08-01T01:11:25;9.83;;;4.00;;
51800;SDS011;37855;53.204;6.568;2023-08-01T01:13:50;11.27;;;4.22;;
51800;SDS011;37855;53.204;6.568;2023-08-01T01:16:19;11.73;;;3.90;;
51800;SDS011;37855;53.204;6.568;2023-08-01T01:18:45;16.58;;;3.78;;
51800;SDS011;37855;53.204;6.568;2023-08-01T01:21:11;11.38;;;4.10;;
51800;SDS011;37855;53.204;6.568;2023-08-01T01:23:37;11.17;;;3.77;;
51800;SDS011;37855;53.204;6.568;2023-08-01T01:26:04;11.27;;;4.30;;
51800;SDS011;37855;53.204;6.568;2023-08-01T01:28:32;11.27;;;4.13;;
51800;SDS011;37855;53.204;6.568;2023-08-01T01:30:58;11.53;;;4.23;;
51800;SDS011;37855;53.204;6.568;2023-08-01T01:33:26;13.13;;;3.95;;
51800;SDS011;37855;53.204;6.568;2023-08-01T01:35:53;11.85;;;4.05;;
51800;SDS011;37855;53.204;6.568;2023-08-01T01:38:19;14.02;;;4.50;;
51800;SDS011;37855;53.204;6.568;2023-08-01T01:40:45;8.50;;;3.50;;
51800;SDS011;37855;53.204;6.568;2023-08-01T01:43:10;13.57;;;4.15;;
51800;SDS011;37855;53.204;6.568;2023-08-01T01:45:36;10.73;;;3.80;;
51800;SDS011;37855;53.204;6.568;2023-08-01T01:48:02;11.88;;;4.10;;
51800;SDS011;37855;53.204;6.568;2023-08-01T01:50:28;12.90;;;4.03;;
51800;SDS011;37855;53.204;6.568;2023-08-01T01:52:53;13.88;;;4.00;;
51800;SDS011;37855;53.204;6.568;2023-08-01T01:55:19;8.63;;;3.73;;
51800;SDS011;37855;53.204;6.568;2023-08-01T01:57:45;13.48;;;4.05;;
51800;SDS011;37855;53.204;6.568;2023-08-01T02:00:11;9.80;;;3.70;;
51800;SDS011;37855;53.204;6.568;2023-08-01T02:02:37;11.30;;;4.25;;
51800;SDS011;37855;53.204;6.568;2023-08-01T02:05:02;10.63;;;3.83;;
51800;SDS011;37855;53.204;6.568;2023-08-01T02:07:31;8.17;;;3.47;;
51800;SDS011;37855;53.204;6.568;2023-08-01T02:09:59;12.20;;;3.80;;
51800;SDS011;37855;53.204;6.568;2023-08-01T02:12:25;9.95;;;3.90;;
51800;SDS011;37855;53.204;6.568;2023-08-01T02:14:51;10.00;;;3.58;;
51800;SDS011;37855;53.204;6.568;2023-08-01T02:17:16;12.57;;;3.93;;
51800;SDS011;37855;53.204;6.568;2023-08-01T02:19:42;10.47;;;3.40;;
51800;SDS011;37855;53.204;6.568;2023-08-01T02:22:08;10.20;;;3.55;;
51800;SDS011;37855;53.204;6.568;2023-08-01T02:24:33;9.83;;;3.30;;
51800;SDS011;37855;53.204;6.568;2023-08-01T02:26:59;11.05;;;3.45;;
51800;SDS011;37855;53.204;6.568;2023-08-01T02:29:25;13.27;;;3.90;;
51800;SDS011;37855;53.204;6.568;2023-08-01T02:31:50;9.32;;;3.70;;
51800;SDS011;37855;53.204;6.568;2023-08-01T02:34:16;9.10;;;3.27;;
51800;SDS011;37855;53.204;6.568;2023-08-01T02:36:42;12.53;;;3.50;;
51800;SDS011;37855;53.204;6.568;2023-08-01T02:39:07;9.53;;;3.30;;
51800;SDS011;37855;53.204;6.568;2023-08-01T02:41:33;13.70;;;3.85;;
51800;SDS011;37855;53.204;6.568;2023-08-01T02:43:59;10.87;;;3.80;;
51800;SDS011;37855;53.204;6.568;2023-08-01T02:46:24;9.40;;;3.70;;
51800;SDS011;37855;53.204;6.568;2023-08-01T02:48:53;12.43;;;3.67;;
51800;SDS011;37855;53.204;6.568;2023-08-01T02:51:19;9.05;;;3.33;;
51800;SDS011;37855;53.204;6.568;2023-08-01T02:53:44;11.45;;;3.78;;
51800;SDS011;37855;53.204;6.568;2023-08-01T02:56:10;10.17;;;3.50;;
51800;SDS011;37855;53.204;6.568;2023-08-01T02:58:36;8.45;;;3.50;;
51800;SDS011;37855;53.204;6.568;2023-08-01T03:01:11;13.87;;;3.53;;
51800;SDS011;37855;53.204;6.568;2023-08-01T03:03:38;11.13;;;3.88;;
51800;SDS011;37855;53.204;6.568;2023-08-01T03:06:04;10.15;;;3.67;;
51800;SDS011;37855;53.204;6.568;2023-08-01T03:08:30;8.37;;;3.83;;
51800;SDS011;37855;53.204;6.568;2023-08-01T03:10:56;9.95;;;3.85;;
51800;SDS011;37855;53.204;6.568;2023-08-01T03:13:22;11.00;;;3.70;;
51800;SDS011;37855;53.204;6.568;2023-08-01T03:15:48;10.53;;;3.80;;
51800;SDS011;37855;53.204;6.568;2023-08-01T03:18:14;10.55;;;4.05;;
51800;SDS011;37855;53.204;6.568;2023-08-01T03:20:39;9.47;;;3.47;;
51800;SDS011;37855;53.204;6.568;2023-08-01T03:23:05;10.07;;;3.72;;
51800;SDS011;37855;53.204;6.568;2023-08-01T03:25:31;11.75;;;4.40;;
51800;SDS011;37855;53.204;6.568;2023-08-01T03:27:58;8.70;;;3.70;;
51800;SDS011;37855;53.204;6.568;2023-08-01T03:30:24;10.20;;;4.22;;
51800;SDS011;37855;53.204;6.568;2023-08-01T03:32:51;12.38;;;4.78;;
51800;SDS011;37855;53.204;6.568;2023-08-01T03:35:16;11.63;;;4.38;;
51800;SDS011;37855;53.204;6.568;2023-08-01T03:37:43;11.00;;;4.70;;
51800;SDS011;37855;53.204;6.568;2023-08-01T03:40:08;12.25;;;4.20;;
51800;SDS011;37855;53.204;6.568;2023-08-01T03:42:34;11.80;;;4.27;;
51800;SDS011;37855;53.204;6.568;2023-08-01T03:45:01;11.45;;;4.80;;
51800;SDS011;37855;53.204;6.568;2023-08-01T03:47:26;13.35;;;5.50;;
51800;SDS011;37855;53.204;6.568;2023-08-01T03:49:52;11.17;;;4.43;;
51800;SDS011;37855;53.204;6.568;2023-08-01T03:52:18;12.52;;;4.40;;
51800;SDS011;37855;53.204;6.568;2023-08-01T03:54:44;15.50;;;4.40;;
51800;SDS011;37855;53.204;6.568;2023-08-01T03:57:11;9.50;;;4.03;;
51800;SDS011;37855;53.204;6.568;2023-08-01T03:59:36;12.20;;;4.53;;
51800;SDS011;37855;53.204;6.568;2023-08-01T04:02:03;13.07;;;4.50;;
51800;SDS011;37855;53.204;6.568;2023-08-01T04:04:29;12.00;;;4.20;;
51800;SDS011;37855;53.204;6.568;2023-08-01T04:06:56;9.35;;;3.50;;
51800;SDS011;37855;53.204;6.568;2023-08-01T04:09:22;8.82;;;3.40;;
51800;SDS011;37855;53.204;6.568;2023-08-01T04:11:48;12.73;;;3.70;;
51800;SDS011;37855;53.204;6.568;2023-08-01T04:14:13;9.85;;;3.97;;
51800;SDS011;37855;53.204;6.568;2023-08-01T04:16:39;10.60;;;3.40;;
51800;SDS011;37855;53.204;6.568;2023-08-01T04:19:05;11.33;;;2.90;;
51800;SDS011;37855;53.204;6.568;2023-08-01T04:21:30;13.10;;;2.90;;
51800;SDS011;37855;53.204;6.568;2023-08-01T04:23:56;8.63;;;2.93;;
51800;SDS011;37855;53.204;6.568;2023-08-01T04:26:22;10.23;;;2.67;;
51800;SDS011;37855;53.204;6.568;2023-08-01T04:28:47;8.43;;;2.60;;
51800;SDS011;37855;53.204;6.568;2023-08-01T04:31:13;10.70;;;2.75;;
51800;SDS011;37855;53.204;6.568;2023-08-01T04:33:39;9.27;;;2.63;;
51800;SDS011;37855;53.204;6.568;2023-08-01T04:36:05;10.70;;;2.80;;
51800;SDS011;37855;53.204;6.568;2023-08-01T04:38:31;12.50;;;2.95;;
51800;SDS011;37855;53.204;6.568;2023-08-01T04:40:57;11.27;;;2.50;;
51800;SDS011;37855;53.204;6.568;2023-08-01T04:43:22;10.82;;;3.15;;
51800;SDS011;37855;53.204;6.568;2023-08-01T04:45:48;9.27;;;2.90;;
51800;SDS011;37855;53.204;6.568;2023-08-01T04:48:14;9.35;;;2.42;;
51800;SDS011;37855;53.204;6.568;2023-08-01T04:50:39;11.87;;;2.63;;
51800;SDS011;37855;53.204;6.568;2023-08-01T04:53:05;8.20;;;2.20;;
51800;SDS011;37855;53.204;6.568;2023-08-01T04:55:31;6.50;;;2.30;;
51800;SDS011;37855;53.204;6.568;2023-08-01T04:57:57;8.70;;;2.50;;
51800;SDS011;37855;53.204;6.568;2023-08-01T05:00:23;9.82;;;2.50;;
51800;SDS011;37855;53.204;6.568;2023-08-01T05:02:48;8.73;;;2.40;;
51800;SDS011;37855;53.204;6.568;2023-08-01T05:05:14;10.35;;;2.50;;
51800;SDS011;37855;53.204;6.568;2023-08-01T05:07:41;14.55;;;2.80;;
51800;SDS011;37855;53.204;6.568;2023-08-01T05:10:07;6.97;;;2.40;;
51800;SDS011;37855;53.204;6.568;2023-08-01T05:12:33;14.30;;;3.35;;
51800;SDS011;37855;53.204;6.568;2023-08-01T05:14:59;11.02;;;2.72;;
51800;SDS011;37855;53.204;6.568;2023-08-01T05:17:24;9.67;;;2.30;;
51800;SDS011;37855;53.204;6.568;2023-08-01T05:19:50;7.72;;;2.40;;
51800;SDS011;37855;53.204;6.568;2023-08-01T05:22:16;12.70;;;5.50;;
51800;SDS011;37855;53.204;6.568;2023-08-01T05:24:41;10.95;;;3.47;;
51800;SDS011;37855;53.204;6.568;2023-08-01T05:27:07;8.67;;;2.57;;
51800;SDS011;37855;53.204;6.568;2023-08-01T05:29:32;11.00;;;3.00;;
51800;SDS011;37855;53.204;6.568;2023-08-01T05:31:58;9.90;;;2.47;;
51800;SDS011;37855;53.204;6.568;2023-08-01T05:34:24;8.57;;;2.40;;
51800;SDS011;37855;53.204;6.568;2023-08-01T05:36:50;9.77;;;2.20;;
51800;SDS011;37855;53.204;6.568;2023-08-01T05:39:16;6.78;;;2.28;;
51800;SDS011;37855;53.204;6.568;2023-08-01T05:41:42;9.07;;;2.50;;
51800;SDS011;37855;53.204;6.568;2023-08-01T05:44:08;6.27;;;2.07;;
51800;SDS011;37855;53.204;6.568;2023-08-01T05:46:34;9.93;;;2.20;;
51800;SDS011;37855;53.204;6.568;2023-08-01T05:49:00;8.00;;;2.08;;
51800;SDS011;37855;53.204;6.568;2023-08-01T05:51:25;6.73;;;1.90;;
51800;SDS011;37855;53.204;6.568;2023-08-01T05:53:51;8.05;;;2.38;;
51800;SDS011;37855;53.204;6.568;2023-08-01T05:56:17;7.73;;;2.40;;
51800;SDS011;37855;53.204;6.568;2023-08-01T05:58:42;6.90;;;2.22;;
51800;SDS011;37855;53.204;6.568;2023-08-01T06:01:10;7.43;;;3.00;;
51800;SDS011;37855;53.204;6.568;2023-08-01T06:03:35;9.30;;;2.80;;
51800;SDS011;37855;53.204;6.568;2023-08-01T06:06:01;7.75;;;2.50;;
51800;SDS011;37855;53.204;6.568;2023-08-01T06:08:27;9.27;;;2.60;;
51800;SDS011;37855;53.204;6.568;2023-08-01T06:10:53;5.20;;;2.08;;
51800;SDS011;37855;53.204;6.568;2023-08-01T06:13:18;7.93;;;2.43;;
51800;SDS011;37855;53.204;6.568;2023-08-01T06:15:44;7.43;;;2.40;;
51800;SDS011;37855;53.204;6.568;2023-08-01T06:18:10;5.80;;;2.33;;
51800;SDS011;37855;53.204;6.568;2023-08-01T06:20:36;8.73;;;2.42;;
51800;SDS011;37855;53.204;6.568;2023-08-01T06:23:02;6.10;;;2.33;;
51800;SDS011;37855;53.204;6.568;2023-08-01T06:25:28;7.43;;;2.33;;
51800;SDS011;37855;53.204;6.568;2023-08-01T06:27:54;6.87;;;2.30;;
51800;SDS011;37855;53.204;6.568;2023-08-01T06:30:19;7.00;;;2.47;;
51800;SDS011;37855;53.204;6.568;2023-08-01T06:32:45;5.20;;;2.13;;
51800;SDS011;37855;53.204;6.568;2023-08-01T06:35:11;5.83;;;1.97;;
51800;SDS011;37855;53.204;6.568;2023-08-01T06:37:36;6.57;;;2.10;;
51800;SDS011;37855;53.204;6.568;2023-08-01T06:40:02;6.57;;;2.50;;
51800;SDS011;37855;53.204;6.568;2023-08-01T06:42:29;7.60;;;2.30;;
51800;SDS011;37855;53.204;6.568;2023-08-01T06:44:55;6.07;;;2.15;;
51800;SDS011;37855;53.204;6.568;2023-08-01T06:47:20;8.30;;;2.30;;
51800;SDS011;37855;53.204;6.568;2023-08-01T06:49:46;7.87;;;2.23;;
51800;SDS011;37855;53.204;6.568;2023-08-01T06:52:12;6.55;;;2.10;;
51800;SDS011;37855;53.204;6.568;2023-08-01T06:54:37;5.77;;;1.80;;
51800;SDS011;37855;53.204;6.568;2023-08-01T06:57:04;5.88;;;2.03;;
51800;SDS011;37855;53.204;6.568;2023-08-01T06:59:30;7.07;;;1.70;;
51800;SDS011;37855;53.204;6.568;2023-08-01T07:01:55;5.00;;;2.27;;
51800;SDS011;37855;53.204;6.568;2023-08-01T07:04:22;7.70;;;2.40;;
51800;SDS011;37855;53.204;6.568;2023-08-01T07:06:49;6.87;;;2.17;;
51800;SDS011;37855;53.204;6.568;2023-08-01T07:09:14;7.15;;;2.10;;
51800;SDS011;37855;53.204;6.568;2023-08-01T07:11:40;4.43;;;1.88;;
51800;SDS011;37855;53.204;6.568;2023-08-01T07:14:06;7.83;;;1.80;;
51800;SDS011;37855;53.204;6.568;2023-08-01T07:16:31;4.90;;;1.70;;
51800;SDS011;37855;53.204;6.568;2023-08-01T07:18:59;6.13;;;1.60;;
51800;SDS011;37855;53.204;6.568;2023-08-01T07:21:26;5.63;;;1.80;;
51800;SDS011;37855;53.204;6.568;2023-08-01T07:23:52;6.85;;;1.48;;
51800;SDS011;37855;53.204;6.568;2023-08-01T07:26:17;6.57;;;1.83;;
51800;SDS011;37855;53.204;6.568;2023-08-01T07:28:43;8.15;;;1.80;;
51800;SDS011;37855;53.204;6.568;2023-08-01T07:31:09;9.03;;;1.70;;
51800;SDS011;37855;53.204;6.568;2023-08-01T07:33:35;8.77;;;1.75;;
51800;SDS011;37855;53.204;6.568;2023-08-01T07:36:01;6.27;;;1.40;;
51800;SDS011;37855;53.204;6.568;2023-08-01T07:38:27;6.22;;;1.50;;
51800;SDS011;37855;53.204;6.568;2023-08-01T07:40:54;10.48;;;1.75;;
51800;SDS011;37855;53.204;6.568;2023-08-01T07:43:20;6.97;;;1.50;;
51800;SDS011;37855;53.204;6.568;2023-08-01T07:45:46;8.23;;;1.40;;
51800;SDS011;37855;53.204;6.568;2023-08-01T07:48:12;7.00;;;1.30;;
51800;SDS011;37855;53.204;6.568;2023-08-01T07:50:37;6.90;;;1.60;;
51800;SDS011;37855;53.204;6.568;2023-08-01T07:53:06;8.63;;;1.75;;
51800;SDS011;37855;53.204;6.568;2023-08-01T07:55:34;4.82;;;1.38;;
51800;SDS011;37855;53.204;6.568;2023-08-01T07:58:00;8.63;;;1.70;;
51800;SDS011;37855;53.204;6.568;2023-08-01T08:00:26;7.13;;;1.73;;
51800;SDS011;37855;53.204;6.568;2023-08-01T08:02:53;7.65;;;1.60;;
51800;SDS011;37855;53.204;6.568;2023-08-01T08:05:19;4.80;;;1.40;;
51800;SDS011;37855;53.204;6.568;2023-08-01T08:07:44;6.43;;;1.40;;
51800;SDS011;37855;53.204;6.568;2023-08-01T08:10:10;4.18;;;1.20;;
51800;SDS011;37855;53.204;6.568;2023-08-01T08:12:36;5.40;;;1.50;;
51800;SDS011;37855;53.204;6.568;2023-08-01T08:15:01;7.05;;;1.90;;
51800;SDS011;37855;53.204;6.568;2023-08-01T08:17:27;4.43;;;1.40;;
51800;SDS011;37855;53.204;6.568;2023-08-01T08:19:53;4.40;;;1.40;;
51800;SDS011;37855;53.204;6.568;2023-08-01T08:22:19;6.40;;;1.80;;
51800;SDS011;37855;53.204;6.568;2023-08-01T08:24:44;8.27;;;1.70;;
51800;SDS011;37855;53.204;6.568;2023-08-01T08:27:10;7.27;;;1.63;;
51800;SDS011;37855;53.204;6.568;2023-08-01T08:29:36;6.25;;;1.50;;
51800;SDS011;37855;53.204;6.568;2023-08-01T08:32:01;7.70;;;1.67;;
51800;SDS011;37855;53.204;6.568;2023-08-01T08:34:27;7.40;;;1.83;;
51800;SDS011;37855;53.204;6.568;2023-08-01T08:36:53;6.25;;;1.77;;
51800;SDS011;37855;53.204;6.568;2023-08-01T08:39:19;6.20;;;1.37;;
51800;SDS011;37855;53.204;6.568;2023-08-01T08:41:49;5.00;;;1.52;;
51800;SDS011;37855;53.204;6.568;2023-08-01T08:44:17;8.02;;;1.70;;
51800;SDS011;37855;53.204;6.568;2023-08-01T08:46:47;7.07;;;1.70;;
51800;SDS011;37855;53.204;6.568;2023-08-01T08:49:18;4.57;;;1.42;;
51800;SDS011;37855;53.204;6.568;2023-08-01T08:51:46;7.18;;;2.00;;
51800;SDS011;37855;53.204;6.568;2023-08-01T08:54:12;5.80;;;1.60;;
51800;SDS011;37855;53.204;6.568;2023-08-01T08:56:40;7.05;;;1.77;;
51800;SDS011;37855;53.204;6.568;2023-08-01T08:59:06;5.43;;;1.70;;
51800;SDS011;37855;53.204;6.568;2023-08-01T09:01:36;7.38;;;1.80;;
51800;SDS011;37855;53.204;6.568;2023-08-01T09:04:02;8.43;;;1.80;;
51800;SDS011;37855;53.204;6.568;2023-08-01T09:06:30;6.90;;;1.75;;
51800;SDS011;37855;53.204;6.568;2023-08-01T09:11:45;5.13;;;1.60;;
51800;SDS011;37855;53.204;6.568;2023-08-01T09:14:11;7.40;;;1.90;;
51800;SDS011;37855;53.204;6.568;2023-08-01T09:16:37;5.72;;;1.70;;
51800;SDS011;37855;53.204;6.568;2023-08-01T09:19:05;5.80;;;1.48;;
51800;SDS011;37855;53.204;6.568;2023-08-01T09:21:32;6.78;;;2.17;;
51800;SDS011;37855;53.204;6.568;2023-08-01T09:24:12;6.73;;;1.70;;
51800;SDS011;37855;53.204;6.568;2023-08-01T09:26:45;5.88;;;1.60;;
51800;SDS011;37855;53.204;6.568;2023-08-01T09:29:12;4.55;;;1.63;;
51800;SDS011;37855;53.204;6.568;2023-08-01T09:31:41;4.83;;;1.50;;
51800;SDS011;37855;53.204;6.568;2023-08-01T09:34:23;6.85;;;1.70;;
51800;SDS011;37855;53.204;6.568;2023-08-01T09:36:51;5.13;;;1.80;;
51800;SDS011;37855;53.204;6.568;2023-08-01T09:39:23;8.35;;;1.67;;
51800;SDS011;37855;53.204;6.568;2023-08-01T09:41:59;6.20;;;1.60;;
51800;SDS011;37855;53.204;6.568;2023-08-01T09:44:26;8.60;;;1.85;;
51800;SDS011;37855;53.204;6.568;2023-08-01T09:46:59;8.48;;;1.90;;
51800;SDS011;37855;53.204;6.568;2023-08-01T09:49:27;4.25;;;1.35;;
51800;SDS011;37855;53.204;6.568;2023-08-01T09:51:54;5.15;;;1.55;;
51800;SDS011;37855;53.204;6.568;2023-08-01T09:54:20;6.20;;;1.60;;
51800;SDS011;37855;53.204;6.568;2023-08-01T09:56:47;7.97;;;1.83;;
51800;SDS011;37855;53.204;6.568;2023-08-01T09:59:19;9.20;;;2.10;;
51800;SDS011;37855;53.204;6.568;2023-08-01T10:01:50;4.75;;;1.48;;
51800;SDS011;37855;53.204;6.568;2023-08-01T10:04:20;7.07;;;2.08;;
51800;SDS011;37855;53.204;6.568;2023-08-01T10:06:49;6.63;;;1.93;;
51800;SDS011;37855;53.204;6.568;2023-08-01T10:09:22;5.78;;;1.60;;
51800;SDS011;37855;53.204;6.568;2023-08-01T10:11:49;5.68;;;1.55;;
51800;SDS011;37855;53.204;6.568;2023-08-01T10:14:16;7.45;;;1.77;;
51800;SDS011;37855;53.204;6.568;2023-08-01T10:16:44;6.65;;;1.55;;
51800;SDS011;37855;53.204;6.568;2023-08-01T10:19:12;5.83;;;1.37;;
51800;SDS011;37855;53.204;6.568;2023-08-01T10:21:38;8.02;;;1.55;;
51800;SDS011;37855;53.204;6.568;2023-08-01T10:24:06;8.90;;;1.80;;
51800;SDS011;37855;53.204;6.568;2023-08-01T10:26:32;7.30;;;1.77;;
51800;SDS011;37855;53.204;6.568;2023-08-01T10:28:58;5.68;;;1.70;;
51800;SDS011;37855;53.204;6.568;2023-08-01T10:31:25;3.83;;;1.50;;
51800;SDS011;37855;53.204;6.568;2023-08-01T10:33:52;5.30;;;1.50;;
51800;SDS011;37855;53.204;6.568;2023-08-01T10:36:28;6.88;;;1.50;;
51800;SDS011;37855;53.204;6.568;2023-08-01T10:38:57;7.85;;;2.00;;
51800;SDS011;37855;53.204;6.568;2023-08-01T10:41:31;7.33;;;1.90;;
51800;SDS011;37855;53.204;6.568;2023-08-01T10:44:05;6.03;;;1.80;;
51800;SDS011;37855;53.204;6.568;2023-08-01T10:46:44;5.85;;;1.75;;
51800;SDS011;37855;53.204;6.568;2023-08-01T10:49:18;6.30;;;1.83;;
51800;SDS011;37855;53.204;6.568;2023-08-01T10:51:45;7.88;;;1.73;;
51800;SDS011;37855;53.204;6.568;2023-08-01T10:54:18;8.73;;;2.03;;
51800;SDS011;37855;53.204;6.568;2023-08-01T10:56:48;5.88;;;1.60;;
51800;SDS011;37855;53.204;6.568;2023-08-01T10:59:15;10.38;;;2.00;;
51800;SDS011;37855;53.204;6.568;2023-08-01T11:01:51;5.90;;;1.40;;
51800;SDS011;37855;53.204;6.568;2023-08-01T11:04:19;8.38;;;1.70;;
51800;SDS011;37855;53.204;6.568;2023-08-01T11:06:47;9.00;;;1.60;;
51800;SDS011;37855;53.204;6.568;2023-08-01T11:09:15;5.57;;;1.42;;
51800;SDS011;37855;53.204;6.568;2023-08-01T11:11:46;7.68;;;2.05;;
51800;SDS011;37855;53.204;6.568;2023-08-01T11:14:14;5.50;;;1.77;;
51800;SDS011;37855;53.204;6.568;2023-08-01T11:16:40;6.53;;;1.60;;
51800;SDS011;37855;53.204;6.568;2023-08-01T11:19:16;5.38;;;1.50;;
51800;SDS011;37855;53.204;6.568;2023-08-01T11:21:50;7.68;;;1.77;;
51800;SDS011;37855;53.204;6.568;2023-08-01T11:24:21;6.72;;;1.55;;
51800;SDS011;37855;53.204;6.568;2023-08-01T11:26:48;6.25;;;1.67;;
51800;SDS011;37855;53.204;6.568;2023-08-01T11:29:15;5.47;;;1.57;;
51800;SDS011;37855;53.204;6.568;2023-08-01T11:31:59;7.05;;;1.70;;
51800;SDS011;37855;53.204;6.568;2023-08-01T11:34:25;7.20;;;1.60;;
51800;SDS011;37855;53.204;6.568;2023-08-01T11:36:51;9.20;;;1.60;;
51800;SDS011;37855;53.204;6.568;2023-08-01T11:39:17;6.68;;;1.40;;
51800;SDS011;37855;53.204;6.568;2023-08-01T11:41:44;5.47;;;1.53;;
51800;SDS011;37855;53.204;6.568;2023-08-01T11:44:13;4.47;;;1.25;;
51800;SDS011;37855;53.204;6.568;2023-08-01T11:46:39;5.85;;;1.30;;
51800;SDS011;37855;53.204;6.568;2023-08-01T11:49:06;8.20;;;1.43;;
51800;SDS011;37855;53.204;6.568;2023-08-01T11:51:42;6.30;;;1.42;;
51800;SDS011;37855;53.204;6.568;2023-08-01T11:54:13;5.88;;;1.40;;
51800;SDS011;37855;53.204;6.568;2023-08-01T11:56:39;7.10;;;1.60;;
51800;SDS011;37855;53.204;6.568;2023-08-01T12:01:40;7.83;;;1.53;;
51800;SDS011;37855;53.204;6.568;2023-08-01T12:04:07;4.70;;;1.40;;
51800;SDS011;37855;53.204;6.568;2023-08-01T12:06:35;8.93;;;1.60;;
51800;SDS011;37855;53.204;6.568;2023-08-01T12:09:12;5.13;;;1.40;;
51800;SDS011;37855;53.204;6.568;2023-08-01T12:11:39;8.30;;;1.42;;
51800;SDS011;37855;53.204;6.568;2023-08-01T12:14:07;7.47;;;1.20;;
51800;SDS011;37855;53.204;6.568;2023-08-01T12:16:41;6.32;;;1.30;;
51800;SDS011;37855;53.204;6.568;2023-08-01T12:19:10;10.35;;;1.42;;
51800;SDS011;37855;53.204;6.568;2023-08-01T12:21:36;6.43;;;1.38;;
51800;SDS011;37855;53.204;6.568;2023-08-01T12:24:03;6.55;;;1.67;;
51800;SDS011;37855;53.204;6.568;2023-08-01T12:26:29;7.63;;;1.77;;
51800;SDS011;37855;53.204;6.568;2023-08-01T12:28:55;7.93;;;2.10;;
51800;SDS011;37855;53.204;6.568;2023-08-01T12:31:22;5.22;;;1.55;;
51800;SDS011;37855;53.204;6.568;2023-08-01T12:33:48;7.70;;;1.88;;
51800;SDS011;37855;53.204;6.568;2023-08-01T12:36:14;8.00;;;2.27;;
51800;SDS011;37855;53.204;6.568;2023-08-01T12:38:41;7.82;;;1.80;;
51800;SDS011;37855;53.204;6.568;2023-08-01T12:41:07;8.98;;;2.22;;
51800;SDS011;37855;53.204;6.568;2023-08-01T12:43:33;6.53;;;2.03;;
51800;SDS011;37855;53.204;6.568;2023-08-01T12:45:58;9.40;;;1.90;;
51800;SDS011;37855;53.204;6.568;2023-08-01T12:48:25;7.32;;;1.73;;
51800;SDS011;37855;53.204;6.568;2023-08-01T12:50:51;6.53;;;1.70;;
51800;SDS011;37855;53.204;6.568;2023-08-01T12:53:18;9.30;;;1.98;;
51800;SDS011;37855;53.204;6.568;2023-08-01T12:55:44;7.30;;;1.90;;
51800;SDS011;37855;53.204;6.568;2023-08-01T12:58:12;7.75;;;1.63;;
51800;SDS011;37855;53.204;6.568;2023-08-01T13:00:39;7.63;;;2.10;;
51800;SDS011;37855;53.204;6.568;2023-08-01T13:03:06;7.40;;;1.90;;
51800;SDS011;37855;53.204;6.568;2023-08-01T13:05:36;7.10;;;1.80;;
51800;SDS011;37855;53.204;6.568;2023-08-01T13:08:03;8.05;;;1.90;;
51800;SDS011;37855;53.204;6.568;2023-08-01T13:10:32;6.78;;;1.73;;
51800;SDS011;37855;53.204;6.568;2023-08-01T13:12:59;6.65;;;1.30;;
51800;SDS011;37855;53.204;6.568;2023-08-01T13:15:25;5.63;;;1.60;;
51800;SDS011;37855;53.204;6.568;2023-08-01T13:17:51;13.55;;;2.20;;
51800;SDS011;37855;53.204;6.568;2023-08-01T13:20:17;6.72;;;1.77;;
51800;SDS011;37855;53.204;6.568;2023-08-01T13:22:45;5.40;;;1.50;;
51800;SDS011;37855;53.204;6.568;2023-08-01T13:25:13;8.75;;;1.70;;
51800;SDS011;37855;53.204;6.568;2023-08-01T13:27:39;6.70;;;1.52;;
51800;SDS011;37855;53.204;6.568;2023-08-01T13:30:04;4.87;;;1.50;;
51800;SDS011;37855;53.204;6.568;2023-08-01T13:32:31;4.45;;;1.30;;
51800;SDS011;37855;53.204;6.568;2023-08-01T13:34:56;5.88;;;1.85;;
51800;SDS011;37855;53.204;6.568;2023-08-01T13:37:22;7.87;;;1.57;;
51800;SDS011;37855;53.204;6.568;2023-08-01T13:39:48;10.55;;;1.90;;
51800;SDS011;37855;53.204;6.568;2023-08-01T13:42:14;7.60;;;1.93;;
51800;SDS011;37855;53.204;6.568;2023-08-01T13:44:40;5.60;;;1.58;;
51800;SDS011;37855;53.204;6.568;2023-08-01T13:47:06;11.32;;;2.35;;
51800;SDS011;37855;53.204;6.568;2023-08-01T13:49:32;9.23;;;1.75;;
51800;SDS011;37855;53.204;6.568;2023-08-01T13:51:58;10.57;;;2.03;;
51800;SDS011;37855;53.204;6.568;2023-08-01T13:54:25;6.35;;;2.05;;
51800;SDS011;37855;53.204;6.568;2023-08-01T13:56:51;9.27;;;1.73;;
51800;SDS011;37855;53.204;6.568;2023-08-01T13:59:18;6.85;;;1.52;;
51800;SDS011;37855;53.204;6.568;2023-08-01T14:01:45;4.47;;;1.60;;
51800;SDS011;37855;53.204;6.568;2023-08-01T14:04:11;4.55;;;1.27;;
51800;SDS011;37855;53.204;6.568;2023-08-01T14:06:39;4.70;;;1.75;;
51800;SDS011;37855;53.204;6.568;2023-08-01T14:09:06;4.72;;;1.27;;
51800;SDS011;37855;53.204;6.568;2023-08-01T14:11:34;6.00;;;1.23;;
51800;SDS011;37855;53.204;6.568;2023-08-01T14:14:00;5.50;;;1.30;;
51800;SDS011;37855;53.204;6.568;2023-08-01T14:16:25;10.80;;;2.25;;
51800;SDS011;37855;53.204;6.568;2023-08-01T14:18:51;8.43;;;1.65;;
51800;SDS011;37855;53.204;6.568;2023-08-01T14:21:17;5.57;;;1.40;;
51800;SDS011;37855;53.204;6.568;2023-08-01T14:23:43;4.30;;;1.40;;
51800;SDS011;37855;53.204;6.568;2023-08-01T14:26:09;5.97;;;1.40;;
51800;SDS011;37855;53.204;6.568;2023-08-01T14:28:34;6.90;;;1.70;;
51800;SDS011;37855;53.204;6.568;2023-08-01T14:31:00;7.43;;;1.60;;
51800;SDS011;37855;53.204;6.568;2023-08-01T14:33:27;6.32;;;1.48;;
51800;SDS011;37855;53.204;6.568;2023-08-01T14:35:53;7.63;;;1.75;;
51800;SDS011;37855;53.204;6.568;2023-08-01T14:38:19;8.75;;;1.83;;
51800;SDS011;37855;53.204;6.568;2023-08-01T14:40:44;7.97;;;1.80;;
51800;SDS011;37855;53.204;6.568;2023-08-01T14:43:10;4.97;;;1.70;;
51800;SDS011;37855;53.204;6.568;2023-08-01T14:45:37;3.40;;;1.50;;
51800;SDS011;37855;53.204;6.568;2023-08-01T14:48:04;7.13;;;1.80;;